Time;durP1;ratioP1;P1;durP2;ratioP2;P2;SDS_P1;SDS_P2;PMS_P1;PMS_P2;Temp;Humidity;BMP_temperature;BMP_pressure;BME280_temperature;BME280_humidity;BME280_pressure;Samples;Min_cycle;Max_cycle;Signal;HPM_P1;HPM_P2
2021/12/02 00:00:36;;;;;;;;;;;6.30;89.30;;;;;;5053854;28;19973;-75
2021/12/02 00:03:07;;;;;;;;;;;6.20;89.20;;;;;;5061025;28;20312;-76
2021/12/02 00:05:33;;;;;;;;;;;6.20;89.20;;;;;;5076152;28;19964;-75
2021/12/02 00:07:59;;;;;;;;;;;6.20;89.10;;;;;;5075530;28;19957;-75
2021/12/02 00:10:28;;;;;;;;;;;6.20;89.00;;;;;;5081615;28;19967;-75
2021/12/02 00:12:56;;;;;;;;;;;6.30;88.80;;;;;;5075937;28;20413;-75
2021/12/02 00:15:25;;;;;;;;;;;6.30;88.70;;;;;;5043097;28;20025;-75
2021/12/02 00:18:07;;;;;;;;;;;6.30;88.60;;;;;;5061153;28;19956;-75
2021/12/02 00:23:22;;;;;;;;;;;6.30;88.60;;;;;;5061020;28;19970;-75
2021/12/02 00:25:49;;;;;;;;;;;6.20;88.60;;;;;;5060656;28;20436;-75
2021/12/02 00:28:15;;;;;;;;;;;6.20;88.70;;;;;;5061641;28;19940;-75
2021/12/02 00:30:40;;;;;;;;;;;6.30;88.80;;;;;;5071622;28;19961;-75
2021/12/02 00:33:06;;;;;;;;;;;6.20;88.80;;;;;;5081397;28;20415;-75
2021/12/02 00:35:32;;;;;;;;;;;6.30;88.80;;;;;;5081469;28;19994;-75
2021/12/02 00:37:58;;;;;;;;;;;6.30;88.80;;;;;;5081527;28;20290;-75
2021/12/02 00:40:24;;;;;;;;;;;6.20;88.80;;;;;;5081389;28;19976;-75
2021/12/02 00:42:50;;;;;;;;;;;6.20;88.90;;;;;;5080117;28;19946;-75
2021/12/02 00:45:16;;;;;;;;;;;6.20;89.00;;;;;;5063379;28;20434;-75
2021/12/02 00:47:42;;;;;;;;;;;6.20;89.10;;;;;;5081848;28;19945;-75
2021/12/02 00:50:08;;;;;;;;;;;6.10;89.10;;;;;;5081392;28;19966;-75
2021/12/02 00:52:35;;;;;;;;;;;6.10;89.30;;;;;;5081310;28;20043;-75
2021/12/02 00:55:00;;;;;;;;;;;6.10;89.40;;;;;;5081250;28;19990;-75
2021/12/02 00:57:27;;;;;;;;;;;6.10;89.50;;;;;;5048482;28;19951;-75
2021/12/02 00:59:53;;;;;;;;;;;6.10;89.60;;;;;;5061315;28;20135;-75
2021/12/02 01:02:19;;;;;;;;;;;6.10;89.70;;;;;;5073406;28;20060;-75
2021/12/02 01:04:44;;;;;;;;;;;6.10;89.80;;;;;;5070190;28;19953;-75
2021/12/02 01:07:10;;;;;;;;;;;6.20;89.80;;;;;;5056759;28;19941;-75
2021/12/02 01:09:36;;;;;;;;;;;6.20;89.80;;;;;;5059012;28;19968;-75
2021/12/02 01:12:01;;;;;;;;;;;6.20;89.90;;;;;;5061027;28;19947;-75
2021/12/02 01:14:27;;;;;;;;;;;6.10;89.90;;;;;;5042847;28;20381;-75
2021/12/02 01:16:53;;;;;;;;;;;6.20;90.00;;;;;;5060967;28;20462;-75
2021/12/02 01:19:19;;;;;;;;;;;6.20;89.90;;;;;;5061814;28;20075;-75
2021/12/02 01:21:46;;;;;;;;;;;6.20;89.90;;;;;;5051378;28;20331;-75
2021/12/02 01:24:13;;;;;;;;;;;6.20;89.90;;;;;;5073979;28;19951;-75
2021/12/02 01:26:40;;;;;;;;;;;6.20;89.90;;;;;;5081033;28;19957;-75
2021/12/02 01:29:05;;;;;;;;;;;6.20;89.90;;;;;;5062900;28;19957;-75
2021/12/02 01:31:32;;;;;;;;;;;6.20;89.80;;;;;;5060914;28;19960;-75
2021/12/02 01:34:03;;;;;;;;;;;6.20;89.70;;;;;;5060576;28;20374;-75
2021/12/02 01:36:32;;;;;;;;;;;6.20;89.70;;;;;;5045291;28;20044;-75
2021/12/02 01:38:58;;;;;;;;;;;6.30;89.60;;;;;;5072358;22;20415;-75
2021/12/02 01:41:23;;;;;;;;;;;6.20;89.80;;;;;;5040525;28;19996;-75
2021/12/02 01:43:51;;;;;;;;;;;6.10;90.00;;;;;;5040605;28;19952;-75
2021/12/02 01:46:19;;;;;;;;;;;6.10;90.40;;;;;;5039858;28;19946;-75
2021/12/02 01:48:51;;;;;;;;;;;6.00;90.70;;;;;;5021948;28;19937;-75
2021/12/02 01:51:17;;;;;;;;;;;6.00;90.80;;;;;;5021895;28;20025;-75
2021/12/02 01:53:43;;;;;;;;;;;6.10;90.60;;;;;;5041904;28;19950;-75
2021/12/02 01:56:13;;;;;;;;;;;6.10;90.40;;;;;;5043692;28;20330;-75
2021/12/02 01:58:43;;;;;;;;;;;6.10;90.30;;;;;;5043621;28;20478;-75
2021/12/02 02:01:29;;;;;;;;;;;6.10;90.30;;;;;;5043981;28;19944;-75
2021/12/02 02:03:55;;;;;;;;;;;6.20;90.30;;;;;;5042998;28;19979;-75
2021/12/02 02:06:28;;;;;;;;;;;6.20;90.20;;;;;;5042206;28;19946;-75
2021/12/02 02:08:58;;;;;;;;;;;6.20;90.20;;;;;;5020423;28;19949;-75
2021/12/02 02:11:28;;;;;;;;;;;6.20;90.30;;;;;;5043205;28;20108;-75
2021/12/02 02:13:55;;;;;;;;;;;6.20;90.40;;;;;;5043102;28;19995;-75
2021/12/02 02:16:21;;;;;;;;;;;6.20;90.50;;;;;;5043528;28;19944;-75
2021/12/02 02:18:46;;;;;;;;;;;6.20;90.60;;;;;;5024847;28;19962;-75
2021/12/02 02:21:18;;;;;;;;;;;6.10;90.60;;;;;;5043472;28;20525;-75
2021/12/02 02:23:49;;;;;;;;;;;6.10;90.80;;;;;;5043079;28;19946;-75
2021/12/02 02:26:17;;;;;;;;;;;6.20;90.70;;;;;;5024715;28;19974;-75
2021/12/02 02:28:42;;;;;;;;;;;6.20;90.70;;;;;;5042486;28;19951;-75
2021/12/02 02:31:08;;;;;;;;;;;6.10;90.60;;;;;;5042931;28;20020;-75
2021/12/02 02:33:37;;;;;;;;;;;6.10;90.70;;;;;;5043222;28;19949;-75
2021/12/02 02:36:07;;;;;;;;;;;6.10;90.80;;;;;;5043173;28;20478;-75
2021/12/02 02:38:33;;;;;;;;;;;6.10;90.70;;;;;;5043228;28;20936;-73
2021/12/02 02:41:00;;;;;;;;;;;6.10;90.70;;;;;;5043420;28;19947;-73
2021/12/02 02:43:27;;;;;;;;;;;6.20;90.60;;;;;;5012661;28;19982;-75
2021/12/02 02:45:53;;;;;;;;;;;6.10;90.60;;;;;;5037901;28;19949;-75
2021/12/02 02:48:18;;;;;;;;;;;6.20;90.50;;;;;;5023519;28;19957;-75
2021/12/02 02:50:44;;;;;;;;;;;6.10;90.50;;;;;;5032253;28;19966;-75
2021/12/02 02:53:12;;;;;;;;;;;6.10;90.50;;;;;;5042800;28;19973;-75
2021/12/02 02:55:38;;;;;;;;;;;6.20;90.40;;;;;;5042362;28;19942;-75
2021/12/02 02:58:20;;;;;;;;;;;6.20;90.50;;;;;;5004763;28;19952;-75
2021/12/02 03:01:00;;;;;;;;;;;6.10;90.60;;;;;;5023006;28;19948;-75
2021/12/02 03:08:48;;;;;;;;;;;6.20;90.60;;;;;;5057166;28;19957;-75
2021/12/02 03:11:16;;;;;;;;;;;6.20;90.50;;;;;;5062919;28;19973;-75
2021/12/02 03:13:50;;;;;;;;;;;6.20;90.40;;;;;;5061849;28;19947;-75
2021/12/02 03:19:01;;;;;;;;;;;6.10;90.50;;;;;;5042345;28;20125;-75
2021/12/02 03:21:28;;;;;;;;;;;6.20;90.60;;;;;;5042609;28;20158;-75
2021/12/02 03:23:55;;;;;;;;;;;6.10;90.50;;;;;;5042237;28;20053;-75
2021/12/02 03:26:20;;;;;;;;;;;6.20;90.40;;;;;;5024038;28;19973;-75
2021/12/02 03:28:47;;;;;;;;;;;6.10;90.40;;;;;;5042584;28;19950;-75
2021/12/02 03:31:13;;;;;;;;;;;6.10;90.40;;;;;;5042178;28;19972;-75
2021/12/02 03:33:38;;;;;;;;;;;6.10;90.40;;;;;;5042431;28;19948;-75
2021/12/02 03:36:04;;;;;;;;;;;6.20;90.40;;;;;;5042042;28;20124;-75
2021/12/02 03:38:29;;;;;;;;;;;6.10;90.30;;;;;;5042024;28;20031;-75
2021/12/02 03:40:55;;;;;;;;;;;6.20;90.20;;;;;;5061854;28;19981;-75
2021/12/02 03:43:22;;;;;;;;;;;6.10;90.10;;;;;;5061922;28;19944;-75
2021/12/02 03:45:47;;;;;;;;;;;6.10;90.20;;;;;;5062027;28;19977;-75
2021/12/02 03:48:13;;;;;;;;;;;6.10;90.20;;;;;;5061800;28;20055;-75
2021/12/02 03:50:40;;;;;;;;;;;6.10;90.30;;;;;;5031849;28;20348;-76
2021/12/02 03:53:06;;;;;;;;;;;6.20;90.30;;;;;;5042283;28;20450;-75
2021/12/02 03:55:31;;;;;;;;;;;6.10;90.40;;;;;;5041464;28;20290;-75
2021/12/02 03:57:57;;;;;;;;;;;6.20;90.40;;;;;;5060810;28;19945;-75
2021/12/02 04:00:23;;;;;;;;;;;6.20;90.40;;;;;;5062101;28;20350;-75
2021/12/02 04:02:49;;;;;;;;;;;6.20;90.50;;;;;;5043255;28;20309;-75
2021/12/02 04:05:14;;;;;;;;;;;6.20;90.70;;;;;;5053242;28;19950;-75
2021/12/02 04:07:40;;;;;;;;;;;6.10;90.70;;;;;;5042610;28;19946;-75
2021/12/02 04:10:06;;;;;;;;;;;6.00;90.80;;;;;;5061166;28;19969;-75
2021/12/02 04:13:04;;;;;;;;;;;5.80;91.40;;;;;;5061578;28;20464;-75
2021/12/02 04:15:40;;;;;;;;;;;5.70;91.70;;;;;;5060629;28;19955;-75
2021/12/02 04:18:03;;;;;;;;;;;5.70;91.80;;;;;;5060582;28;19954;-75
2021/12/02 04:20:28;;;;;;;;;;;5.60;92.20;;;;;;5061352;28;19996;-75
2021/12/02 04:22:56;;;;;;;;;;;5.60;92.30;;;;;;5043147;28;20458;-75
2021/12/02 04:25:22;;;;;;;;;;;5.50;92.60;;;;;;5061101;28;20356;-75
2021/12/02 04:27:48;;;;;;;;;;;5.50;92.80;;;;;;5061128;28;19943;-75
2021/12/02 04:30:15;;;;;;;;;;;5.40;92.90;;;;;;5060987;28;19967;-75
2021/12/02 04:32:40;;;;;;;;;;;5.40;93.10;;;;;;5061510;28;20010;-75
2021/12/02 04:35:06;;;;;;;;;;;5.40;93.20;;;;;;5043322;28;20442;-75
2021/12/02 04:37:32;;;;;;;;;;;5.40;93.40;;;;;;5061247;28;19947;-75
2021/12/02 04:39:58;;;;;;;;;;;5.40;93.40;;;;;;5060951;28;20326;-75
2021/12/02 04:42:23;;;;;;;;;;;5.40;93.40;;;;;;5042873;28;19950;-75
2021/12/02 04:44:49;;;;;;;;;;;5.40;93.60;;;;;;5061149;28;19943;-75
2021/12/02 04:47:14;;;;;;;;;;;5.50;93.70;;;;;;5061425;28;20026;-75
2021/12/02 04:49:41;;;;;;;;;;;5.50;93.70;;;;;;5061393;28;19934;-75
2021/12/02 04:52:07;;;;;;;;;;;5.60;93.70;;;;;;5061351;28;19950;-75
2021/12/02 04:54:32;;;;;;;;;;;5.60;93.70;;;;;;5061103;28;20005;-75
2021/12/02 04:56:58;;;;;;;;;;;5.60;93.70;;;;;;5060993;28;20442;-75
2021/12/02 04:59:23;;;;;;;;;;;5.60;93.80;;;;;;5042829;28;20004;-75
2021/12/02 05:01:49;;;;;;;;;;;5.50;93.80;;;;;;5060600;28;20020;-75
2021/12/02 05:04:14;;;;;;;;;;;5.50;93.80;;;;;;5042919;28;19992;-75
2021/12/02 05:06:40;;;;;;;;;;;5.60;93.90;;;;;;5040537;28;19944;-75
2021/12/02 05:09:05;;;;;;;;;;;5.50;93.90;;;;;;5056706;28;20090;-75
2021/12/02 05:11:31;;;;;;;;;;;5.50;94.00;;;;;;5060795;28;20490;-75
2021/12/02 05:13:56;;;;;;;;;;;5.60;93.90;;;;;;5042308;28;19940;-75
2021/12/02 05:16:22;;;;;;;;;;;5.60;93.80;;;;;;5060956;28;20102;-75
2021/12/02 05:18:47;;;;;;;;;;;5.50;93.90;;;;;;5060387;28;19985;-75
2021/12/02 05:21:13;;;;;;;;;;;5.40;94.10;;;;;;5060694;28;20398;-75
2021/12/02 05:23:39;;;;;;;;;;;5.50;94.00;;;;;;5060799;28;20491;-75
2021/12/02 05:26:04;;;;;;;;;;;5.50;94.00;;;;;;5059716;28;19966;-75
2021/12/02 05:28:30;;;;;;;;;;;5.40;94.10;;;;;;5057969;28;19950;-75
2021/12/02 05:30:55;;;;;;;;;;;5.50;94.10;;;;;;5063328;28;19958;-75
2021/12/02 05:33:21;;;;;;;;;;;5.50;94.10;;;;;;5063945;28;20601;-75
2021/12/02 05:35:47;;;;;;;;;;;5.50;94.00;;;;;;5079867;28;19949;-75
2021/12/02 05:38:13;;;;;;;;;;;5.50;94.10;;;;;;5063633;28;20039;-75
2021/12/02 05:40:38;;;;;;;;;;;5.50;94.10;;;;;;5064282;28;19947;-75
2021/12/02 05:43:04;;;;;;;;;;;5.50;94.10;;;;;;5063819;28;19944;-75
2021/12/02 05:45:29;;;;;;;;;;;5.60;94.20;;;;;;5063721;28;19943;-82
2021/12/02 05:47:55;;;;;;;;;;;5.80;94.10;;;;;;5063426;28;20061;-75
2021/12/02 05:50:21;;;;;;;;;;;5.90;93.90;;;;;;5064394;28;20011;-75
2021/12/02 05:52:46;;;;;;;;;;;6.00;93.80;;;;;;5063611;28;19947;-75
2021/12/02 05:55:12;;;;;;;;;;;5.90;93.60;;;;;;5063120;28;19950;-75
2021/12/02 05:57:37;;;;;;;;;;;5.70;93.60;;;;;;5044887;28;20378;-75
2021/12/02 06:00:05;;;;;;;;;;;5.80;93.80;;;;;;5058077;28;20080;-75
2021/12/02 06:02:30;;;;;;;;;;;5.70;93.50;;;;;;5058474;28;19947;-75
2021/12/02 06:04:56;;;;;;;;;;;5.70;93.70;;;;;;5059895;28;19953;-75
2021/12/02 06:07:21;;;;;;;;;;;5.70;93.70;;;;;;5058601;28;20473;-75
2021/12/02 06:09:47;;;;;;;;;;;5.70;93.70;;;;;;5061513;28;20038;-75
2021/12/02 06:12:13;;;;;;;;;;;5.70;93.80;;;;;;5045038;28;19998;-75
2021/12/02 06:14:38;;;;;;;;;;;5.80;93.80;;;;;;5063540;28;19943;-74
2021/12/02 06:17:04;;;;;;;;;;;5.70;93.80;;;;;;5074951;28;20001;-75
2021/12/02 06:19:30;;;;;;;;;;;5.70;93.90;;;;;;5065012;28;19955;-75
2021/12/02 06:21:55;;;;;;;;;;;5.80;93.90;;;;;;5075291;28;20434;-75
2021/12/02 06:24:28;;;;;;;;;;;5.70;93.80;;;;;;5043098;28;20405;-75
2021/12/02 06:26:54;;;;;;;;;;;5.70;94.00;;;;;;5059285;28;20769;-75
2021/12/02 06:29:19;;;;;;;;;;;5.80;94.10;;;;;;5055795;28;19949;-75
2021/12/02 06:31:45;;;;;;;;;;;5.90;94.10;;;;;;5057814;28;19963;-75
2021/12/02 06:34:11;;;;;;;;;;;5.90;93.90;;;;;;5050871;28;20059;-75
2021/12/02 06:36:37;;;;;;;;;;;5.80;93.80;;;;;;5052170;28;20063;-75
2021/12/02 06:39:06;;;;;;;;;;;5.80;93.90;;;;;;5055069;28;20082;-75
2021/12/02 06:41:32;;;;;;;;;;;5.90;94.00;;;;;;5057133;28;20490;-75
2021/12/02 06:43:58;;;;;;;;;;;6.10;94.10;;;;;;5053924;28;19962;-75
2021/12/02 06:46:24;;;;;;;;;;;6.00;93.90;;;;;;5057426;28;19958;-75
2021/12/02 06:48:49;;;;;;;;;;;6.00;93.70;;;;;;5060007;28;20009;-75
2021/12/02 06:51:17;;;;;;;;;;;6.00;93.60;;;;;;5055162;28;20197;-75
2021/12/02 06:53:42;;;;;;;;;;;6.00;93.50;;;;;;5053570;28;19951;-75
2021/12/02 06:56:08;;;;;;;;;;;5.90;93.40;;;;;;5032253;28;20358;-75
2021/12/02 06:58:34;;;;;;;;;;;5.90;93.40;;;;;;5028429;28;19980;-75
2021/12/02 07:01:00;;;;;;;;;;;5.90;93.40;;;;;;5046467;28;19961;-75
2021/12/02 07:03:25;;;;;;;;;;;5.90;93.40;;;;;;5036634;28;19958;-75
2021/12/02 07:05:51;;;;;;;;;;;5.90;93.40;;;;;;5057241;28;20567;-75
2021/12/02 07:08:17;;;;;;;;;;;5.90;93.40;;;;;;5036883;28;19977;-74
2021/12/02 07:10:43;;;;;;;;;;;5.90;93.40;;;;;;5049486;28;20477;-74
2021/12/02 07:13:09;;;;;;;;;;;6.00;93.50;;;;;;5052036;28;19972;-74
2021/12/02 07:15:41;;;;;;;;;;;6.00;93.60;;;;;;5052591;28;20751;-74
2021/12/02 07:18:12;;;;;;;;;;;6.20;93.80;;;;;;5046305;28;20000;-74
2021/12/02 07:20:38;;;;;;;;;;;6.30;94.00;;;;;;5054728;28;20103;-74
2021/12/02 07:23:04;;;;;;;;;;;6.40;94.00;;;;;;5054363;28;19978;-75
2021/12/02 07:25:31;;;;;;;;;;;6.50;93.90;;;;;;5056101;28;19969;-75
2021/12/02 07:27:56;;;;;;;;;;;6.70;93.90;;;;;;5044105;28;20453;-73
2021/12/02 07:30:22;;;;;;;;;;;6.70;93.70;;;;;;5051959;28;19970;-74
2021/12/02 07:32:53;;;;;;;;;;;6.80;93.00;;;;;;5047808;28;19985;-74
2021/12/02 07:35:19;;;;;;;;;;;6.90;92.30;;;;;;5039958;28;19947;-74
2021/12/02 07:37:46;;;;;;;;;;;6.90;91.60;;;;;;5044299;28;19960;-75
2021/12/02 07:40:12;;;;;;;;;;;6.90;91.00;;;;;;5049930;28;20476;-75
2021/12/02 07:42:38;;;;;;;;;;;6.90;90.70;;;;;;5045720;28;20005;-74
2021/12/02 07:45:04;;;;;;;;;;;6.90;90.40;;;;;;5046032;28;19963;-75
2021/12/02 07:47:30;;;;;;;;;;;6.70;90.50;;;;;;5050387;28;19952;-75
2021/12/02 07:49:56;;;;;;;;;;;6.60;90.60;;;;;;5051921;28;19972;-75
2021/12/02 07:52:24;;;;;;;;;;;6.50;90.90;;;;;;5053718;28;19957;-74
2021/12/02 07:54:51;;;;;;;;;;;6.50;91.20;;;;;;5052067;28;20006;-75
2021/12/02 07:57:17;;;;;;;;;;;6.50;91.50;;;;;;5050754;28;19965;-75
2021/12/02 07:59:42;;;;;;;;;;;6.40;91.80;;;;;;5052377;28;19952;-74
2021/12/02 08:02:14;;;;;;;;;;;6.40;91.90;;;;;;5053758;28;19949;-74
2021/12/02 08:04:40;;;;;;;;;;;6.40;92.00;;;;;;5054916;28;19956;-75
2021/12/02 08:07:05;;;;;;;;;;;6.40;92.20;;;;;;5047777;28;19969;-75
2021/12/02 08:09:31;;;;;;;;;;;6.40;92.30;;;;;;5042454;28;19962;-75
2021/12/02 08:11:59;;;;;;;;;;;6.50;92.20;;;;;;5047794;28;19952;-75
2021/12/02 08:14:25;;;;;;;;;;;6.50;91.90;;;;;;5049621;28;19941;-75
2021/12/02 08:16:51;;;;;;;;;;;6.40;91.90;;;;;;5048878;28;19965;-75
2021/12/02 08:19:16;;;;;;;;;;;6.40;91.90;;;;;;5055164;28;19948;-75
2021/12/02 08:21:42;;;;;;;;;;;6.40;91.90;;;;;;5051073;28;19957;-75
2021/12/02 08:24:08;;;;;;;;;;;6.40;91.80;;;;;;5050875;28;20448;-75
2021/12/02 08:26:33;;;;;;;;;;;6.60;91.80;;;;;;5031345;28;19966;-75
2021/12/02 08:29:00;;;;;;;;;;;6.80;91.50;;;;;;5051618;28;19943;-75
2021/12/02 08:31:25;;;;;;;;;;;6.70;91.50;;;;;;5051408;28;20092;-75
2021/12/02 08:33:53;;;;;;;;;;;6.70;91.80;;;;;;5050914;28;19952;-75
2021/12/02 08:36:22;;;;;;;;;;;6.80;92.10;;;;;;5051930;28;19952;-75
2021/12/02 08:38:48;;;;;;;;;;;6.90;92.20;;;;;;5052936;28;20023;-75
2021/12/02 08:41:17;;;;;;;;;;;7.00;92.20;;;;;;5053927;28;19961;-75
2021/12/02 08:43:43;;;;;;;;;;;7.20;92.20;;;;;;5053840;28;19950;-75
2021/12/02 08:46:09;;;;;;;;;;;7.30;92.10;;;;;;5052971;28;20028;-75
2021/12/02 08:48:35;;;;;;;;;;;7.40;91.40;;;;;;5051385;28;19948;-75
2021/12/02 08:51:01;;;;;;;;;;;7.40;90.70;;;;;;5022644;28;20418;-75
2021/12/02 08:53:26;;;;;;;;;;;7.50;89.70;;;;;;5054746;28;20342;-75
2021/12/02 08:55:52;;;;;;;;;;;7.60;88.90;;;;;;5031718;28;19947;-75
2021/12/02 08:58:18;;;;;;;;;;;7.50;88.30;;;;;;5055368;28;19946;-75
2021/12/02 09:00:44;;;;;;;;;;;7.40;88.60;;;;;;5052209;28;20384;-75
2021/12/02 09:03:12;;;;;;;;;;;7.30;88.80;;;;;;5051387;28;19944;-75
2021/12/02 09:05:39;;;;;;;;;;;7.30;88.90;;;;;;5057389;28;19945;-75
2021/12/02 09:08:04;;;;;;;;;;;7.40;89.00;;;;;;5053933;28;19993;-75
2021/12/02 09:10:30;;;;;;;;;;;7.30;89.40;;;;;;5057701;28;19961;-76
2021/12/02 09:12:56;;;;;;;;;;;7.40;89.90;;;;;;5058609;28;20614;-75
2021/12/02 09:15:21;;;;;;;;;;;7.50;90.10;;;;;;5054827;28;20413;-75
2021/12/02 09:17:47;;;;;;;;;;;7.80;90.10;;;;;;5051602;28;20053;-76
2021/12/02 09:20:15;;;;;;;;;;;8.00;89.80;;;;;;5040876;28;20044;-75
2021/12/02 09:22:40;;;;;;;;;;;8.20;89.40;;;;;;5058009;28;20039;-75
2021/12/02 09:25:06;;;;;;;;;;;8.30;87.60;;;;;;5054193;28;19956;-75
2021/12/02 09:27:32;;;;;;;;;;;8.30;86.80;;;;;;5049909;28;19977;-75
2021/12/02 09:29:58;;;;;;;;;;;8.40;86.00;;;;;;5052025;28;20083;-75
2021/12/02 09:32:24;;;;;;;;;;;8.20;85.80;;;;;;5054431;28;20011;-75
2021/12/02 09:34:50;;;;;;;;;;;8.10;86.40;;;;;;5057422;28;20591;-75
2021/12/02 09:37:16;;;;;;;;;;;8.20;86.20;;;;;;5050646;28;19945;-75
2021/12/02 09:39:41;;;;;;;;;;;8.10;86.60;;;;;;5040407;23;20029;-75
2021/12/02 09:42:10;;;;;;;;;;;8.10;86.90;;;;;;5054657;28;19956;-75
2021/12/02 09:44:37;;;;;;;;;;;8.10;87.30;;;;;;5044712;28;20294;-75
2021/12/02 09:47:03;;;;;;;;;;;8.00;87.80;;;;;;5057206;28;19942;-75
2021/12/02 09:49:29;;;;;;;;;;;7.90;88.10;;;;;;5039818;28;19992;-75
2021/12/02 09:56:55;;;;;;;;;;;7.90;88.00;;;;;;5056225;28;19971;-75
2021/12/02 10:01:57;;;;;;;;;;;8.10;88.00;;;;;;5058290;28;20033;-75
2021/12/02 10:04:24;;;;;;;;;;;8.10;87.70;;;;;;5056747;28;19954;-75
2021/12/02 10:07:03;;;;;;;;;;;8.30;87.30;;;;;;5051556;28;20371;-75
2021/12/02 10:09:39;;;;;;;;;;;8.20;86.70;;;;;;5053546;28;19977;-75
2021/12/02 10:12:14;;;;;;;;;;;8.20;87.10;;;;;;5056085;28;19960;-75
2021/12/02 10:14:42;;;;;;;;;;;8.10;87.40;;;;;;5052924;28;19962;-75
2021/12/02 10:17:16;;;;;;;;;;;7.90;87.90;;;;;;5053553;28;19950;-75
2021/12/02 10:20:10;;;;;;;;;;;7.80;89.00;;;;;;5058856;28;19946;-74
2021/12/02 10:22:36;;;;;;;;;;;7.60;89.10;;;;;;5057027;28;20011;-74
2021/12/02 10:25:01;;;;;;;;;;;7.50;89.60;;;;;;5059805;28;19987;-75
2021/12/02 10:27:27;;;;;;;;;;;7.40;89.50;;;;;;5046210;28;19966;-75
2021/12/02 10:29:52;;;;;;;;;;;7.40;90.00;;;;;;5049426;28;19976;-75
2021/12/02 10:32:22;;;;;;;;;;;7.50;90.10;;;;;;5050979;28;19954;-74
2021/12/02 10:34:48;;;;;;;;;;;7.50;90.20;;;;;;5050089;28;19957;-74
2021/12/02 10:37:17;;;;;;;;;;;7.50;90.30;;;;;;5047336;28;21496;-75
2021/12/02 10:39:53;;;;;;;;;;;7.50;90.30;;;;;;5045803;28;20106;-75
2021/12/02 10:42:20;;;;;;;;;;;7.50;90.60;;;;;;5046926;28;19951;-74
2021/12/02 10:44:45;;;;;;;;;;;7.50;90.80;;;;;;5048180;28;20240;-75
2021/12/02 10:47:12;;;;;;;;;;;7.60;91.10;;;;;;5036806;28;20893;-74
2021/12/02 10:49:45;;;;;;;;;;;7.60;91.00;;;;;;5054007;28;20047;-74
2021/12/02 10:52:14;;;;;;;;;;;7.60;91.00;;;;;;5046615;28;19945;-74
2021/12/02 10:54:41;;;;;;;;;;;7.60;91.00;;;;;;5046083;28;19948;-74
2021/12/02 10:57:11;;;;;;;;;;;7.60;91.00;;;;;;5045779;28;19953;-74
2021/12/02 10:59:42;;;;;;;;;;;7.60;91.20;;;;;;5051503;28;20008;-74
2021/12/02 11:02:08;;;;;;;;;;;7.60;90.90;;;;;;5041904;28;19943;-74
2021/12/02 11:04:35;;;;;;;;;;;7.60;90.80;;;;;;5053655;28;19970;-74
2021/12/02 11:07:02;;;;;;;;;;;7.50;91.00;;;;;;5044245;28;20420;-74
2021/12/02 11:09:31;;;;;;;;;;;7.50;91.20;;;;;;5039780;28;19948;-74
2021/12/02 11:12:06;;;;;;;;;;;7.50;91.30;;;;;;5055427;28;19956;-74
2021/12/02 11:14:32;;;;;;;;;;;7.50;91.30;;;;;;5059957;28;20446;-74
2021/12/02 11:17:30;;;;;;;;;;;7.60;91.30;;;;;;5060066;28;19948;-74
2021/12/02 11:19:56;;;;;;;;;;;7.60;91.30;;;;;;5021588;28;20034;-74
2021/12/02 11:22:23;;;;;;;;;;;7.60;91.10;;;;;;5050379;28;19993;-74
2021/12/02 11:24:49;;;;;;;;;;;7.70;90.90;;;;;;5053738;28;19946;-74
2021/12/02 11:27:23;;;;;;;;;;;7.60;91.00;;;;;;5054488;28;19957;-74
2021/12/02 11:29:52;;;;;;;;;;;7.60;90.70;;;;;;5051063;28;20076;-74
2021/12/02 11:32:23;;;;;;;;;;;7.60;91.10;;;;;;5058915;28;19954;-72
2021/12/02 11:34:58;;;;;;;;;;;7.60;90.80;;;;;;5059154;28;20270;-72
2021/12/02 11:37:24;;;;;;;;;;;7.50;91.00;;;;;;5053931;28;19943;-72
2021/12/02 11:39:50;;;;;;;;;;;7.60;90.90;;;;;;5038618;28;19980;-72
2021/12/02 11:42:16;;;;;;;;;;;7.60;90.90;;;;;;5021681;28;20247;-72
2021/12/02 11:44:42;;;;;;;;;;;7.60;90.60;;;;;;5039752;28;20110;-72
2021/12/02 11:47:08;;;;;;;;;;;7.70;90.40;;;;;;5039695;28;20379;-72
2021/12/02 11:49:35;;;;;;;;;;;7.80;90.20;;;;;;5039115;28;20028;-72
2021/12/02 11:52:00;;;;;;;;;;;7.90;90.50;;;;;;5039672;28;20060;-72
2021/12/02 11:54:26;;;;;;;;;;;8.10;90.80;;;;;;5043608;28;20425;-72
2021/12/02 11:56:52;;;;;;;;;;;8.40;90.80;;;;;;5048824;28;19956;-72
2021/12/02 11:59:18;;;;;;;;;;;8.60;90.10;;;;;;5057995;28;20011;-72
2021/12/02 12:01:43;;;;;;;;;;;8.80;89.20;;;;;;5059166;28;19950;-72
2021/12/02 12:04:10;;;;;;;;;;;8.90;87.50;;;;;;5057055;28;19976;-72
2021/12/02 12:06:37;;;;;;;;;;;8.80;86.50;;;;;;5056211;28;19955;-72
2021/12/02 12:09:12;;;;;;;;;;;8.70;86.70;;;;;;5049429;28;20023;-72
2021/12/02 12:11:43;;;;;;;;;;;8.50;86.80;;;;;;5056733;28;20709;-72
2021/12/02 12:14:10;;;;;;;;;;;8.40;87.40;;;;;;5057231;28;19956;-72
2021/12/02 12:16:38;;;;;;;;;;;8.40;87.90;;;;;;5033769;28;20049;-72
2021/12/02 12:19:13;;;;;;;;;;;8.40;87.80;;;;;;5053928;28;19945;-72
2021/12/02 12:21:39;;;;;;;;;;;8.30;88.30;;;;;;5054942;28;19991;-72
2021/12/02 12:24:06;;;;;;;;;;;8.30;88.30;;;;;;5055974;28;19961;-72
2021/12/02 12:26:33;;;;;;;;;;;8.30;88.30;;;;;;5045410;28;20013;-72
2021/12/02 12:31:30;;;;;;;;;;;8.20;88.80;;;;;;5040336;28;20528;-72
2021/12/02 12:33:59;;;;;;;;;;;8.20;88.40;;;;;;5044947;28;20129;-72
2021/12/02 12:36:37;;;;;;;;;;;8.10;88.50;;;;;;5042361;28;19945;-74
2021/12/02 12:39:19;;;;;;;;;;;8.10;88.60;;;;;;5049173;28;19990;-75
2021/12/02 12:42:04;;;;;;;;;;;8.00;89.00;;;;;;5046964;28;19965;-75
2021/12/02 12:44:46;;;;;;;;;;;8.00;89.60;;;;;;5043449;28;19952;-74
2021/12/02 12:47:12;;;;;;;;;;;7.90;90.30;;;;;;5047857;28;20017;-74
2021/12/02 12:49:38;;;;;;;;;;;7.80;90.80;;;;;;5040859;28;20666;-74
2021/12/02 12:52:13;;;;;;;;;;;7.70;90.50;;;;;;5051691;28;19969;-74
2021/12/02 12:54:40;;;;;;;;;;;7.60;90.70;;;;;;5045047;28;20075;-74
2021/12/02 12:57:06;;;;;;;;;;;7.50;91.10;;;;;;5045174;28;20354;-74
2021/12/02 12:59:55;;;;;;;;;;;7.40;91.50;;;;;;5045617;28;19941;-74
2021/12/02 13:02:20;;;;;;;;;;;7.40;91.80;;;;;;5045402;28;20157;-74
2021/12/02 13:04:52;;;;;;;;;;;7.40;91.70;;;;;;5044739;28;19955;-74
2021/12/02 13:07:19;;;;;;;;;;;7.40;91.80;;;;;;5040741;28;20513;-75
2021/12/02 13:12:18;;;;;;;;;;;7.40;91.50;;;;;;5050445;28;20514;-75
2021/12/02 13:14:45;;;;;;;;;;;7.40;91.40;;;;;;5042623;28;20052;-75
2021/12/02 13:17:29;;;;;;;;;;;7.40;91.30;;;;;;5044378;28;19953;-75
2021/12/02 13:19:58;;;;;;;;;;;7.40;91.40;;;;;;5041157;28;19959;-75
2021/12/02 13:22:24;;;;;;;;;;;7.40;91.40;;;;;;5051139;28;20098;-75
2021/12/02 13:24:49;;;;;;;;;;;7.40;91.60;;;;;;5043358;28;19952;-75
2021/12/02 13:27:21;;;;;;;;;;;7.40;91.70;;;;;;5046914;28;19972;-75
2021/12/02 13:29:46;;;;;;;;;;;7.50;91.60;;;;;;5046627;28;19999;-75
2021/12/02 13:32:12;;;;;;;;;;;7.50;91.90;;;;;;5049311;28;20104;-75
2021/12/02 13:34:37;;;;;;;;;;;7.40;91.80;;;;;;5042462;28;20025;-74
2021/12/02 13:37:05;;;;;;;;;;;7.40;91.80;;;;;;5049961;28;19955;-75
2021/12/02 13:39:35;;;;;;;;;;;7.40;91.80;;;;;;5048632;28;19984;-74
2021/12/02 13:42:06;;;;;;;;;;;7.30;92.10;;;;;;5041169;28;20010;-75
2021/12/02 13:44:45;;;;;;;;;;;7.30;92.10;;;;;;5045736;28;20666;-74
2021/12/02 13:47:16;;;;;;;;;;;7.30;92.20;;;;;;5048425;28;19957;-74
2021/12/02 13:49:46;;;;;;;;;;;7.30;92.50;;;;;;5047010;28;19950;-74
2021/12/02 13:54:54;;;;;;;;;;;7.30;92.30;;;;;;5052555;28;20387;-75
2021/12/02 13:57:22;;;;;;;;;;;7.30;92.20;;;;;;5051937;28;19952;-75
2021/12/02 13:59:48;;;;;;;;;;;7.30;92.20;;;;;;5049123;28;20745;-75
2021/12/02 14:02:18;;;;;;;;;;;7.40;92.30;;;;;;5046807;28;20041;-75
2021/12/02 14:04:44;;;;;;;;;;;7.40;91.90;;;;;;5032022;28;20016;-74
2021/12/02 14:07:10;;;;;;;;;;;7.30;92.00;;;;;;5024449;28;19984;-74
2021/12/02 14:09:46;;;;;;;;;;;7.30;91.90;;;;;;5044619;28;20283;-75
2021/12/02 14:12:11;;;;;;;;;;;7.30;91.90;;;;;;5045470;28;19990;-74
2021/12/02 14:14:37;;;;;;;;;;;7.30;91.90;;;;;;5048391;28;20411;-74
2021/12/02 14:17:05;;;;;;;;;;;7.30;91.90;;;;;;5052075;28;19944;-74
2021/12/02 14:19:31;;;;;;;;;;;7.30;92.00;;;;;;5046053;28;19973;-74
2021/12/02 14:21:57;;;;;;;;;;;7.40;92.00;;;;;;5043846;28;20405;-74
2021/12/02 14:24:22;;;;;;;;;;;7.40;91.90;;;;;;5043438;28;20369;-74
2021/12/02 14:26:48;;;;;;;;;;;7.40;92.00;;;;;;5049533;28;20629;-74
2021/12/02 14:29:14;;;;;;;;;;;7.60;91.80;;;;;;5053071;28;20475;-74
2021/12/02 14:31:40;;;;;;;;;;;7.70;91.70;;;;;;5055883;28;20275;-75
2021/12/02 14:34:10;;;;;;;;;;;7.80;91.20;;;;;;5047086;28;20545;-75
2021/12/02 14:36:41;;;;;;;;;;;7.80;90.60;;;;;;5036670;28;20486;-75
2021/12/02 14:39:11;;;;;;;;;;;7.80;90.60;;;;;;5043992;28;20256;-75
2021/12/02 14:41:41;;;;;;;;;;;7.80;90.60;;;;;;5028127;28;19953;-75
2021/12/02 14:44:09;;;;;;;;;;;7.80;90.60;;;;;;5052783;28;19953;-75
2021/12/02 14:46:39;;;;;;;;;;;7.70;90.70;;;;;;5050355;28;19955;-75
2021/12/02 14:49:14;;;;;;;;;;;7.80;90.60;;;;;;5049072;28;19994;-75
2021/12/02 14:51:42;;;;;;;;;;;7.80;90.50;;;;;;5050951;28;20152;-75
2021/12/02 14:54:08;;;;;;;;;;;7.70;90.60;;;;;;5047393;28;20041;-75
2021/12/02 14:56:35;;;;;;;;;;;7.60;91.00;;;;;;5047131;28;20036;-75
2021/12/02 14:59:29;;;;;;;;;;;7.60;91.20;;;;;;5053447;28;20052;-75